Time;durP1;ratioP1;P1;durP2;ratioP2;P2;SDS_P1;SDS_P2;PMS_P1;PMS_P2;Temp;Humidity;BMP_temperature;BMP_pressure;BME280_temperature;BME280_humidity;BME280_pressure;Samples;Min_cycle;Max_cycle;Signal;HPM_P1;HPM_P2
2022/04/17 00:00:28;;;;;;;5.07;4.60;;;12.20;40.00;;;;;;4955844;28;20463;-85
2022/04/17 00:03:12;;;;;;;4.23;3.83;;;12.30;40.80;;;;;;4959533;28;20480;-85
2022/04/17 00:05:43;;;;;;;5.30;3.20;;;12.40;40.40;;;;;;4960350;28;20457;-86
2022/04/17 00:08:29;;;;;;;4.40;4.00;;;12.30;40.50;;;;;;4992111;23;20500;-86
2022/04/17 00:14:13;;;;;;;5.13;4.57;;;11.90;40.80;;;;;;4978322;28;20510;-86
2022/04/17 00:16:40;;;;;;;5.17;4.20;;;11.80;41.30;;;;;;4982021;28;20455;-84
2022/04/17 00:19:14;;;;;;;4.03;3.73;;;11.70;41.50;;;;;;4982489;28;20490;-86
2022/04/17 00:21:41;;;;;;;4.67;4.27;;;11.90;41.60;;;;;;4994000;28;20452;-86
2022/04/17 00:24:15;;;;;;;4.70;3.40;;;11.80;41.50;;;;;;4988109;28;20455;-86
2022/04/17 00:26:42;;;;;;;4.33;3.93;;;11.60;41.90;;;;;;4976044;28;20462;-85
2022/04/17 00:29:16;;;;;;;4.90;4.50;;;11.40;42.40;;;;;;4999349;28;20482;-86
2022/04/17 00:31:43;;;;;;;4.90;4.13;;;11.30;42.70;;;;;;4995920;28;20459;-85
2022/04/17 00:34:44;;;;;;;3.70;3.40;;;11.20;43.00;;;;;;4997165;28;20447;-82
2022/04/17 00:37:13;;;;;;;6.80;3.63;;;11.20;43.30;;;;;;4999818;28;20491;-86
2022/04/17 00:39:43;;;;;;;4.50;3.90;;;11.10;43.40;;;;;;4994557;28;20483;-86
2022/04/17 00:43:09;;;;;;;;;;;;;;;;;;;;;
2022/04/17 00:46:00;;;;;;;4.30;3.93;;;11.20;44.10;;;;;;4923498;29;20452;-86
2022/04/17 00:48:30;;;;;;;5.03;4.57;;;11.30;44.10;;;;;;4996207;23;20511;-86
2022/04/17 00:50:57;;;;;;;4.70;4.30;;;11.30;44.20;;;;;;5005087;28;20446;-85
2022/04/17 00:53:27;;;;;;;4.07;3.77;;;11.60;44.00;;;;;;5006313;28;20451;-85
2022/04/17 00:55:55;;;;;;;4.97;4.10;;;11.50;43.80;;;;;;4996985;28;20489;-82
2022/04/17 00:58:23;;;;;;;3.90;3.60;;;11.10;44.20;;;;;;5009461;28;20523;-85
2022/04/17 01:00:50;;;;;;;6.27;3.87;;;11.10;44.60;;;;;;5011119;28;20455;-85
2022/04/17 01:03:18;;;;;;;5.50;3.50;;;11.00;44.70;;;;;;5001713;28;20479;-85
2022/04/17 01:05:46;;;;;;;4.10;3.40;;;11.10;44.90;;;;;;4999607;28;20467;-86
2022/04/17 01:08:14;;;;;;;4.90;4.40;;;11.10;45.20;;;;;;5008568;28;20475;-84
2022/04/17 01:10:42;;;;;;;4.33;3.80;;;11.10;45.20;;;;;;4998847;28;20484;-86
2022/04/17 01:13:12;;;;;;;3.47;3.17;;;11.10;45.60;;;;;;4997981;28;20465;-85
2022/04/17 01:15:40;;;;;;;4.20;3.70;;;11.00;45.10;;;;;;5001587;28;20494;-85
2022/04/17 01:18:07;;;;;;;4.20;3.33;;;10.90;45.30;;;;;;5003722;28;20547;-85
2022/04/17 01:20:38;;;;;;;3.67;3.37;;;11.00;45.50;;;;;;5001891;28;20470;-85
2022/04/17 01:28:36;;;;;;;3.70;3.40;;;10.60;46.10;;;;;;5000486;28;20542;-85
2022/04/17 01:31:04;;;;;;;4.23;3.83;;;10.80;45.90;;;;;;5010342;28;20451;-83
2022/04/17 01:33:31;;;;;;;4.37;3.90;;;10.70;46.20;;;;;;5008361;28;20440;-84
2022/04/17 01:35:58;;;;;;;4.80;4.40;;;10.70;46.30;;;;;;5007581;28;21012;-82
2022/04/17 01:38:25;;;;;;;4.73;4.33;;;10.70;46.60;;;;;;5008542;28;20483;-82
2022/04/17 01:40:53;;;;;;;4.70;4.10;;;10.70;47.10;;;;;;5010122;28;20471;-83
2022/04/17 01:43:20;;;;;;;4.10;3.70;;;10.80;47.20;;;;;;5008154;28;20475;-83
2022/04/17 01:45:48;;;;;;;3.80;3.50;;;10.70;47.30;;;;;;5009754;28;20534;-83
2022/04/17 01:48:16;;;;;;;4.00;3.70;;;10.60;47.40;;;;;;5003143;28;20510;-80
2022/04/17 01:50:42;;;;;;;5.60;4.53;;;10.90;47.60;;;;;;4999386;28;20515;-85
2022/04/17 01:53:09;;;;;;;7.10;4.60;;;10.80;47.10;;;;;;5009433;28;20463;-82
2022/04/17 01:55:36;;;;;;;4.93;3.57;;;10.70;47.50;;;;;;5004857;28;20467;-84
2022/04/17 01:58:07;;;;;;;5.20;3.70;;;10.60;48.10;;;;;;5073602;23;20495;-84
2022/04/17 02:00:34;;;;;;;5.03;4.10;;;10.60;48.50;;;;;;5011962;28;20510;-86
2022/04/17 02:03:03;;;;;;;4.63;4.03;;;10.60;48.60;;;;;;5006002;28;20479;-83
2022/04/17 02:05:32;;;;;;;7.07;4.17;;;10.40;48.50;;;;;;5010156;28;20459;-85
2022/04/17 02:07:59;;;;;;;4.20;3.90;;;10.20;48.80;;;;;;4986317;28;20507;-84
2022/04/17 02:10:26;;;;;;;5.43;3.93;;;10.10;48.90;;;;;;4987831;28;20461;-85
2022/04/17 02:12:56;;;;;;;4.53;4.03;;;10.20;49.20;;;;;;4986736;28;20441;-83
2022/04/17 02:15:27;;;;;;;5.60;4.83;;;10.40;49.10;;;;;;4975267;28;20488;-82
2022/04/17 02:20:35;;;;;;;3.80;3.50;;;10.60;49.70;;;;;;5059252;23;20519;-86
2022/04/17 02:23:02;;;;;;;4.53;3.70;;;10.50;49.30;;;;;;4957170;28;20552;-82
2022/04/17 02:25:29;;;;;;;4.20;3.90;;;10.40;49.10;;;;;;4954297;28;20448;-85
2022/04/17 02:27:57;;;;;;;4.80;3.70;;;10.30;49.20;;;;;;4959459;28;20528;-84
2022/04/17 02:30:24;;;;;;;4.80;3.93;;;10.20;49.50;;;;;;4960767;28;20459;-85
2022/04/17 02:32:52;;;;;;;3.80;3.50;;;10.20;49.90;;;;;;4960565;28;20489;-83
2022/04/17 02:35:19;;;;;;;4.10;3.50;;;10.10;49.90;;;;;;4962121;29;20488;-86
2022/04/17 02:37:46;;;;;;;4.37;3.97;;;10.00;50.20;;;;;;4965541;28;20472;-82
2022/04/17 02:40:14;;;;;;;3.77;3.47;;;10.00;50.80;;;;;;4956991;29;20480;-84
2022/04/17 02:42:43;;;;;;;4.40;3.30;;;10.00;51.10;;;;;;4949666;29;20489;-84
2022/04/17 02:45:09;;;;;;;4.90;3.57;;;10.00;51.20;;;;;;4960457;28;20556;-87
2022/04/17 02:47:42;;;;;;;4.63;3.63;;;9.90;52.30;;;;;;4968481;28;20457;-82
2022/04/17 02:50:11;;;;;;;5.50;3.73;;;9.80;52.40;;;;;;4944088;28;20453;-84
2022/04/17 02:52:39;;;;;;;7.00;3.90;;;9.80;52.70;;;;;;4964644;28;20464;-85
2022/04/17 02:55:09;;;;;;;3.50;3.20;;;9.70;52.80;;;;;;4951794;28;20465;-83
2022/04/17 02:57:37;;;;;;;5.00;3.83;;;9.70;52.90;;;;;;4937356;28;20457;-85
2022/04/17 03:06:37;;;;;;;4.87;4.13;;;9.70;53.00;;;;;;4954389;28;20484;-84
2022/04/17 03:09:04;;;;;;;3.77;3.47;;;9.70;53.30;;;;;;5022395;23;20502;-85
2022/04/17 03:11:31;;;;;;;4.13;3.73;;;9.60;53.00;;;;;;4980513;28;20460;-84
2022/04/17 03:13:57;;;;;;;4.37;3.80;;;9.60;53.10;;;;;;4976206;28;20495;-85
2022/04/17 03:16:24;;;;;;;7.57;4.27;;;9.50;53.10;;;;;;4974805;28;20557;-84
2022/04/17 03:18:52;;;;;;;5.23;4.20;;;9.40;53.40;;;;;;4978279;28;20482;-84
2022/04/17 03:21:19;;;;;;;3.63;3.37;;;9.40;54.30;;;;;;4981240;28;20480;-86
2022/04/17 03:23:46;;;;;;;5.30;3.37;;;9.50;53.70;;;;;;4979530;28;20505;-82
2022/04/17 03:26:24;;;;;;;3.73;3.50;;;9.50;53.20;;;;;;4987553;28;20460;-87
2022/04/17 03:28:55;;;;;;;3.40;3.10;;;9.40;53.20;;;;;;4984877;28;20471;-86
2022/04/17 03:31:25;;;;;;;6.60;3.73;;;9.50;53.50;;;;;;4986470;28;20455;-82
2022/04/17 03:33:55;;;;;;;3.60;3.30;;;9.50;53.40;;;;;;4983489;28;20452;-84
2022/04/17 03:36:39;;;;;;;3.90;3.60;;;9.70;53.40;;;;;;4987757;28;20467;-85
2022/04/17 03:39:09;;;;;;;3.43;3.13;;;9.60;53.60;;;;;;5083684;23;20590;-86
2022/04/17 03:41:46;;;;;;;;;;;;;;;;;;;;;
2022/04/17 03:44:15;;;;;;;3.27;3.07;;;9.30;54.20;;;;;;5001620;28;20479;-85
2022/04/17 03:46:51;;;;;;;3.73;3.30;;;9.40;54.70;;;;;;4998688;28;20953;-85
2022/04/17 03:49:24;;;;;;;3.50;3.23;;;9.50;54.40;;;;;;4979546;28;20506;-82
2022/04/17 03:52:45;;;;;;;4.07;3.57;;;9.40;53.80;;;;;;4971356;28;20866;-84
2022/04/17 03:54:54;;;;;;;4.13;3.80;;;9.40;53.80;;;;;;4966208;28;20469;-85
2022/04/17 03:57:23;;;;;;;3.87;3.57;;;9.40;53.90;;;;;;4979816;28;20528;-85
2022/04/17 04:00:18;;;;;;;3.93;3.60;;;9.30;54.00;;;;;;4985136;28;20467;-84
2022/04/17 04:02:52;;;;;;;4.03;3.60;;;9.30;54.20;;;;;;4971914;28;20479;-84
2022/04/17 04:05:19;;;;;;;3.93;3.63;;;9.20;54.50;;;;;;4985266;28;20462;-84
2022/04/17 04:07:47;;;;;;;6.40;3.93;;;9.10;54.60;;;;;;4990270;28;20532;-83
2022/04/17 04:16:45;;;;;;;2.80;2.60;;;9.10;55.20;;;;;;4978606;28;20450;-83
2022/04/17 04:19:57;;;;;;;3.73;3.43;;;9.10;55.20;;;;;;4997480;28;20483;-84
2022/04/17 04:22:24;;;;;;;3.83;3.53;;;9.00;55.20;;;;;;5009521;28;20552;-81
2022/04/17 04:25:47;;;;;;;6.27;3.40;;;9.10;55.20;;;;;;4981338;28;20481;-83
2022/04/17 04:28:51;;;;;;;4.00;3.70;;;9.10;55.20;;;;;;4985425;28;20471;-82
2022/04/17 04:31:30;;;;;;;3.20;2.90;;;9.00;55.20;;;;;;4970619;28;20463;-82
2022/04/17 04:34:02;;;;;;;4.73;2.60;;;9.00;55.50;;;;;;4975604;28;20864;-80
2022/04/17 04:36:31;;;;;;;3.97;3.67;;;9.00;55.30;;;;;;4978100;28;20460;-85
2022/04/17 04:39:11;;;;;;;3.53;3.23;;;9.00;55.10;;;;;;4967933;28;20485;-81
2022/04/17 04:41:43;;;;;;;3.90;3.60;;;9.00;55.40;;;;;;4984586;28;20466;-84
2022/04/17 04:44:24;;;;;;;3.67;3.33;;;9.10;55.40;;;;;;4991892;28;20520;-81
2022/04/17 04:46:51;;;;;;;3.47;3.17;;;9.10;55.20;;;;;;5000305;28;20457;-84
2022/04/17 04:49:30;;;;;;;3.23;2.97;;;9.00;55.30;;;;;;4993776;28;20480;-82
2022/04/17 04:52:01;;;;;;;4.60;3.50;;;9.00;55.50;;;;;;4991279;28;20456;-88
2022/04/17 04:54:40;;;;;;;3.80;3.50;;;9.00;55.40;;;;;;4969185;28;20440;-86
2022/04/17 04:57:19;;;;;;;4.57;3.57;;;8.90;55.80;;;;;;4992302;28;20443;-83
2022/04/17 05:00:22;;;;;;;6.53;3.40;;;9.00;56.00;;;;;;5038176;23;21058;-85
2022/04/17 05:02:51;;;;;;;3.40;2.97;;;9.00;56.10;;;;;;5010298;28;20440;-80
2022/04/17 05:05:40;;;;;;;5.77;3.40;;;9.00;55.90;;;;;;5011909;28;20448;-80
2022/04/17 05:08:07;;;;;;;4.97;3.70;;;9.10;55.80;;;;;;5021833;23;20499;-85
2022/04/17 05:10:34;;;;;;;3.40;3.10;;;9.00;55.70;;;;;;4997158;28;20484;-86
2022/04/17 05:13:00;;;;;;;3.70;3.40;;;8.80;56.10;;;;;;4993581;28;20713;-84
2022/04/17 05:15:27;;;;;;;3.43;3.13;;;8.90;56.50;;;;;;5008916;28;20460;-84
2022/04/17 05:17:54;;;;;;;3.17;2.87;;;8.70;56.90;;;;;;5012590;23;21601;-83
2022/04/17 05:20:21;;;;;;;2.97;2.73;;;8.70;57.20;;;;;;4981555;28;20460;-83
2022/04/17 05:22:55;;;;;;;5.17;3.47;;;8.70;57.40;;;;;;4988454;28;20519;-82
2022/04/17 05:25:24;;;;;;;4.57;3.67;;;8.90;57.40;;;;;;4978548;28;20463;-83
2022/04/17 05:27:50;;;;;;;3.37;3.07;;;9.00;57.20;;;;;;4976878;28;20468;-84
2022/04/17 05:30:17;;;;;;;3.80;3.50;;;9.30;57.10;;;;;;4989471;28;20520;-83
2022/04/17 05:32:44;;;;;;;4.60;3.20;;;9.20;56.80;;;;;;4975330;28;20523;-86
2022/04/17 05:35:12;;;;;;;3.43;3.07;;;9.30;57.10;;;;;;4974315;28;21008;-85
2022/04/17 05:37:42;;;;;;;3.00;2.77;;;9.30;56.90;;;;;;4983678;28;20473;-83
2022/04/17 05:40:09;;;;;;;5.10;3.17;;;9.40;56.50;;;;;;4971604;28;20452;-85
2022/04/17 05:42:36;;;;;;;4.70;2.93;;;9.30;56.60;;;;;;4972595;28;20455;-83
2022/04/17 05:45:03;;;;;;;3.30;3.00;;;9.30;56.50;;;;;;4978580;28;20861;-85
2022/04/17 05:47:30;;;;;;;2.50;2.40;;;9.30;56.50;;;;;;4967336;28;20471;-84
2022/04/17 05:49:58;;;;;;;3.63;3.10;;;9.10;56.90;;;;;;4958811;28;20463;-82
2022/04/17 05:52:31;;;;;;;5.13;3.10;;;9.00;57.30;;;;;;4971060;28;20479;-84
2022/04/17 05:54:58;;;;;;;2.30;2.20;;;9.10;57.30;;;;;;4962403;28;20465;-83
2022/04/17 05:57:25;;;;;;;2.83;2.63;;;9.20;57.30;;;;;;4989152;28;20464;-82
2022/04/17 05:59:52;;;;;;;2.53;2.33;;;9.10;57.30;;;;;;4977001;28;20538;-82
2022/04/17 06:02:20;;;;;;;2.70;2.50;;;9.20;56.80;;;;;;4977274;28;20440;-87
2022/04/17 06:04:48;;;;;;;2.60;2.50;;;9.30;57.00;;;;;;4969114;28;20473;-86
2022/04/17 06:07:25;;;;;;;2.60;2.40;;;10.50;55.90;;;;;;4978236;28;20515;-82
2022/04/17 06:09:52;;;;;;;3.40;2.70;;;12.60;52.30;;;;;;4971121;28;20544;-86
2022/04/17 06:12:19;;;;;;;2.83;2.63;;;15.50;49.00;;;;;;4989101;28;20455;-87
2022/04/17 06:14:49;;;;;;;2.53;2.30;;;18.30;43.40;;;;;;4973940;28;20440;-86
2022/04/17 06:17:16;;;;;;;3.40;3.10;;;20.10;40.00;;;;;;4980418;28;20516;-83
2022/04/17 06:19:43;;;;;;;3.37;3.07;;;21.20;37.70;;;;;;4988891;28;20484;-82
2022/04/17 06:22:11;;;;;;;2.90;2.60;;;21.80;36.30;;;;;;4977182;28;20449;-83
2022/04/17 06:24:39;;;;;;;3.10;2.80;;;22.50;34.60;;;;;;4969265;28;21048;-84
2022/04/17 06:27:11;;;;;;;3.03;2.73;;;22.20;34.60;;;;;;4966849;28;20436;-85
2022/04/17 06:29:41;;;;;;;3.27;2.93;;;22.80;34.70;;;;;;4976247;28;20480;-86
2022/04/17 06:32:08;;;;;;;3.30;2.87;;;24.10;33.30;;;;;;4991639;28;20520;-84
2022/04/17 06:34:35;;;;;;;5.00;3.00;;;24.40;32.70;;;;;;4982549;28;20463;-84
2022/04/17 06:37:04;;;;;;;3.70;2.90;;;24.30;31.90;;;;;;4986228;28;20523;-86
2022/04/17 06:39:37;;;;;;;2.37;2.17;;;23.50;32.30;;;;;;4980288;28;20498;-83
2022/04/17 06:42:42;;;;;;;2.63;2.43;;;23.70;32.30;;;;;;4985420;28;20506;-84
2022/04/17 06:45:34;;;;;;;2.70;2.43;;;24.50;31.80;;;;;;4969652;28;20601;-84
2022/04/17 06:48:29;;;;;;;2.70;2.50;;;24.70;30.80;;;;;;4982006;28;20485;-84
2022/04/17 06:50:59;;;;;;;2.90;2.70;;;22.60;31.80;;;;;;4987591;28;20466;-84
2022/04/17 06:53:46;;;;;;;3.20;2.20;;;21.80;32.80;;;;;;4967380;28;20530;-85
2022/04/17 06:56:16;;;;;;;3.13;2.60;;;21.70;32.90;;;;;;4986145;28;20488;-83
2022/04/17 06:58:43;;;;;;;2.90;2.30;;;22.70;33.20;;;;;;4990391;28;20468;-83
2022/04/17 07:01:10;;;;;;;2.50;2.30;;;23.40;31.80;;;;;;4992912;28;20449;-85
2022/04/17 07:07:00;;;;;;;2.90;2.70;;;22.80;31.80;;;;;;4962729;28;20454;-85
2022/04/17 07:09:27;;;;;;;2.13;2.03;;;23.70;31.60;;;;;;5045314;23;20505;-84
2022/04/17 07:11:55;;;;;;;2.70;2.20;;;24.20;31.10;;;;;;5012598;28;20479;-84
2022/04/17 07:14:22;;;;;;;2.70;2.20;;;25.20;30.80;;;;;;5016061;28;20465;-85
2022/04/17 07:16:49;;;;;;;2.60;2.03;;;25.40;29.80;;;;;;4994606;28;20501;-85
2022/04/17 07:19:16;;;;;;;2.67;2.23;;;25.40;29.30;;;;;;5014472;28;20504;-84
2022/04/17 07:21:43;;;;;;;2.90;2.60;;;24.70;29.50;;;;;;5022926;28;20669;-86
2022/04/17 07:24:10;;;;;;;3.13;2.13;;;24.30;29.70;;;;;;5018873;28;20501;-85
2022/04/17 07:26:36;;;;;;;2.30;2.10;;;23.80;30.40;;;;;;5021664;28;20485;-84
2022/04/17 07:29:04;;;;;;;2.30;2.10;;;23.50;30.50;;;;;;5000274;28;20506;-83
2022/04/17 07:31:31;;;;;;;2.37;2.17;;;23.00;30.20;;;;;;5007843;28;20443;-83
2022/04/17 07:33:59;;;;;;;2.47;2.10;;;23.30;31.10;;;;;;5009232;28;20454;-82
2022/04/17 07:36:26;;;;;;;3.13;2.37;;;23.90;30.60;;;;;;5024219;28;20545;-86
2022/04/17 07:38:54;;;;;;;2.27;2.07;;;24.10;30.10;;;;;;5016665;28;20482;-84
2022/04/17 07:41:21;;;;;;;2.23;2.03;;;23.10;30.00;;;;;;5033725;28;20564;-83
2022/04/17 07:43:47;;;;;;;2.70;2.33;;;23.60;30.40;;;;;;5029479;28;20480;-83
2022/04/17 07:46:14;;;;;;;4.70;2.93;;;24.60;30.00;;;;;;4995335;28;20833;-83
2022/04/17 07:48:41;;;;;;;2.03;1.87;;;24.60;29.50;;;;;;5016061;28;20502;-83
2022/04/17 07:51:07;;;;;;;3.23;2.40;;;23.80;29.30;;;;;;5015958;28;20517;-83
2022/04/17 07:53:34;;;;;;;2.37;2.17;;;23.10;30.20;;;;;;4995358;28;20453;-81
2022/04/17 07:56:02;;;;;;;2.20;2.10;;;23.10;30.40;;;;;;5033974;28;20533;-84
2022/04/17 07:58:34;;;;;;;2.00;1.90;;;22.60;30.20;;;;;;5019456;28;20465;-83
2022/04/17 08:01:10;;;;;;;3.10;2.20;;;22.20;30.70;;;;;;5031455;28;20502;-84
2022/04/17 08:03:46;;;;;;;4.40;2.10;;;21.10;31.10;;;;;;5016081;28;20472;-83
2022/04/17 08:06:20;;;;;;;2.40;2.20;;;20.20;32.70;;;;;;5014280;28;20456;-84
2022/04/17 08:08:50;;;;;;;2.47;2.27;;;21.50;31.50;;;;;;5007015;28;20481;-84
2022/04/17 08:11:18;;;;;;;2.53;2.33;;;22.20;31.30;;;;;;4999858;28;20585;-86
2022/04/17 08:13:46;;;;;;;2.67;2.47;;;22.10;31.00;;;;;;5006093;28;20462;-85
2022/04/17 08:16:14;;;;;;;2.30;2.10;;;22.00;31.50;;;;;;5021266;28;20462;-83
2022/04/17 08:18:41;;;;;;;3.20;2.40;;;22.80;30.60;;;;;;5022074;28;20474;-84
2022/04/17 08:21:09;;;;;;;3.00;2.10;;;23.00;30.00;;;;;;4994934;28;20974;-83
2022/04/17 08:23:37;;;;;;;3.23;2.93;;;23.60;30.00;;;;;;5009152;28;20469;-83
2022/04/17 08:26:05;;;;;;;2.20;2.07;;;23.60;29.80;;;;;;5010543;28;20856;-83
2022/04/17 08:28:33;;;;;;;2.43;2.23;;;24.20;29.60;;;;;;5012775;28;20619;-84
2022/04/17 08:31:00;;;;;;;2.50;2.30;;;24.20;29.50;;;;;;5021835;28;20458;-85
2022/04/17 08:33:28;;;;;;;2.00;1.90;;;24.60;29.10;;;;;;5021338;28;20459;-84
2022/04/17 08:35:55;;;;;;;2.83;2.17;;;24.00;29.30;;;;;;5018629;28;20503;-85
2022/04/17 08:38:22;;;;;;;2.50;2.30;;;23.90;29.60;;;;;;5033858;28;20481;-86
2022/04/17 08:40:49;;;;;;;2.97;2.40;;;23.30;30.00;;;;;;5017656;28;20522;-87
2022/04/17 08:43:18;;;;;;;2.40;2.20;;;22.40;30.10;;;;;;5024769;28;20530;-81
2022/04/17 08:45:50;;;;;;;2.63;2.43;;;22.80;30.50;;;;;;5015072;28;20512;-83
2022/04/17 08:48:17;;;;;;;2.17;1.93;;;24.30;29.90;;;;;;5029666;28;20620;-85
2022/04/17 08:50:47;;;;;;;2.23;2.00;;;24.20;29.20;;;;;;5023093;28;20549;-85
2022/04/17 08:53:16;;;;;;;1.70;1.60;;;23.90;29.30;;;;;;5003772;28;20537;-87
2022/04/17 08:55:50;;;;;;;2.10;1.90;;;24.40;29.20;;;;;;5003172;28;20465;-84
2022/04/17 08:58:18;;;;;;;3.93;2.53;;;24.30;28.90;;;;;;4998952;28;20500;-85
2022/04/17 09:00:45;;;;;;;2.27;2.07;;;23.90;29.10;;;;;;4999635;28;20473;-86
2022/04/17 09:03:13;;;;;;;2.83;2.50;;;24.00;29.60;;;;;;5009900;28;20465;-85
2022/04/17 09:05:40;;;;;;;2.17;2.03;;;24.50;29.30;;;;;;5010979;28;20498;-84
2022/04/17 09:08:21;;;;;;;2.23;1.90;;;25.00;28.90;;;;;;5002612;28;21444;-84
2022/04/17 09:10:58;;;;;;;1.87;1.60;;;24.60;27.90;;;;;;4986126;28;20462;-86
2022/04/17 09:13:33;;;;;;;2.20;2.00;;;24.00;28.70;;;;;;4987122;28;20750;-84
2022/04/17 09:16:02;;;;;;;2.00;1.90;;;24.70;28.70;;;;;;4984783;28;20549;-86
2022/04/17 09:18:43;;;;;;;2.97;2.10;;;25.00;27.90;;;;;;4985267;23;20500;-87
2022/04/17 09:21:41;;;;;;;2.20;2.00;;;24.20;28.40;;;;;;4972438;28;20463;-84
2022/04/17 09:24:56;;;;;;;1.90;1.80;;;23.80;28.70;;;;;;4971373;28;20518;-84
2022/04/17 09:30:26;;;;;;;2.60;2.20;;;24.40;28.70;;;;;;4931490;29;20584;-83
2022/04/17 09:32:55;;;;;;;1.67;1.57;;;25.40;28.20;;;;;;4930417;29;20540;-86
2022/04/17 09:35:23;;;;;;;2.33;2.00;;;25.00;27.80;;;;;;4932227;29;20469;-86
2022/04/17 09:37:59;;;;;;;3.40;2.17;;;25.50;27.20;;;;;;4916417;28;21194;-84
2022/04/17 09:40:28;;;;;;;2.03;1.63;;;24.80;27.30;;;;;;4932588;28;20444;-82
2022/04/17 09:43:13;;;;;;;1.90;1.80;;;24.60;27.60;;;;;;4931012;28;20469;-83
2022/04/17 09:46:06;;;;;;;2.70;2.00;;;24.30;27.50;;;;;;4967414;28;20468;-88
2022/04/17 09:49:00;;;;;;;2.23;2.00;;;23.40;27.60;;;;;;5087622;23;20515;-87
2022/04/17 09:51:32;;;;;;;2.10;1.83;;;24.50;27.60;;;;;;4965135;28;20428;-88
2022/04/17 09:54:17;;;;;;;3.87;2.10;;;24.80;27.30;;;;;;4991355;28;20452;-85
2022/04/17 09:57:04;;;;;;;2.27;1.80;;;24.30;27.20;;;;;;4978501;28;20459;-86
2022/04/17 09:59:37;;;;;;;2.10;1.63;;;24.30;27.30;;;;;;4964447;28;20814;-84
2022/04/17 10:02:26;;;;;;;1.90;1.80;;;23.90;27.30;;;;;;4962491;28;20455;-86
2022/04/17 10:04:59;;;;;;;1.80;1.70;;;24.20;27.10;;;;;;4960540;28;20521;-85
2022/04/17 10:07:50;;;;;;;1.87;1.70;;;24.00;27.20;;;;;;4960210;28;20456;-85
2022/04/17 10:10:29;;;;;;;2.60;1.53;;;23.90;27.30;;;;;;4955353;28;20467;-86
2022/04/17 10:13:25;;;;;;;2.70;2.03;;;24.00;27.10;;;;;;4956675;28;20487;-84
2022/04/17 10:16:33;;;;;;;1.50;1.40;;;22.80;28.30;;;;;;4960812;28;20515;-88
2022/04/17 10:19:06;;;;;;;1.47;1.30;;;23.50;27.60;;;;;;4954039;28;20971;-86
2022/04/17 10:21:41;;;;;;;1.80;1.70;;;23.70;27.40;;;;;;4970009;28;20524;-87
2022/04/17 10:24:19;;;;;;;2.30;1.40;;;23.40;27.60;;;;;;4957694;28;21163;-86
2022/04/17 10:27:02;;;;;;;1.43;1.37;;;23.60;27.80;;;;;;4953388;28;20464;-88
2022/04/17 10:29:43;;;;;;;1.57;1.47;;;22.10;28.70;;;;;;4968512;28;20471;-86
2022/04/17 10:33:42;;;;;;;1.60;1.50;;;22.20;29.50;;;;;;4958061;28;20459;-87
2022/04/17 10:36:34;;;;;;;2.13;1.80;;;23.50;28.90;;;;;;4959858;28;20519;-83
2022/04/17 10:39:54;;;;;;;2.77;2.20;;;23.60;28.70;;;;;;4959493;28;20475;-86
2022/04/17 10:42:52;;;;;;;6.17;1.87;;;22.50;29.10;;;;;;4940880;28;20562;-87
2022/04/17 10:46:06;;;;;;;2.00;1.60;;;22.40;29.90;;;;;;4945883;28;20490;-86
2022/04/17 10:49:05;;;;;;;2.60;1.80;;;23.40;29.30;;;;;;4964689;28;20598;-84
2022/04/17 10:51:36;;;;;;;5.30;1.97;;;23.70;29.10;;;;;;4951602;28;20531;-86
2022/04/17 10:54:18;;;;;;;2.17;1.70;;;23.60;29.20;;;;;;4952837;28;20555;-85
2022/04/17 10:57:42;;;;;;;3.80;1.77;;;22.60;29.30;;;;;;4968194;28;22019;-84
2022/04/17 11:00:45;;;;;;;2.50;1.60;;;22.80;29.50;;;;;;4955256;28;20452;-87
2022/04/17 11:03:29;;;;;;;2.23;1.60;;;23.00;29.50;;;;;;4931144;28;20741;-85
2022/04/17 11:06:30;;;;;;;3.07;1.70;;;23.00;29.30;;;;;;4942485;28;20495;-86
2022/04/17 11:09:12;;;;;;;1.53;1.33;;;22.90;29.70;;;;;;5016268;23;20503;-85
2022/04/17 11:11:43;;;;;;;1.43;1.33;;;23.40;29.20;;;;;;4971556;28;20459;-87
2022/04/17 11:14:18;;;;;;;1.50;1.40;;;22.60;29.50;;;;;;4970497;28;20452;-87
2022/04/17 11:17:00;;;;;;;1.83;1.70;;;22.80;29.80;;;;;;4968695;28;20964;-85
2022/04/17 11:19:31;;;;;;;1.33;1.20;;;23.60;29.40;;;;;;4966466;28;20566;-85
2022/04/17 11:22:01;;;;;;;1.60;1.50;;;23.10;29.30;;;;;;4969900;28;20474;-85
2022/04/17 11:24:30;;;;;;;1.60;1.50;;;23.10;29.30;;;;;;4974249;28;20878;-85
2022/04/17 11:26:58;;;;;;;2.30;1.60;;;23.60;29.30;;;;;;4974728;28;20460;-86
2022/04/17 11:29:48;;;;;;;2.23;1.50;;;23.20;29.20;;;;;;4974276;28;20464;-85
2022/04/17 11:32:18;;;;;;;1.73;1.63;;;23.20;29.70;;;;;;4973530;28;20472;-85
2022/04/17 11:34:52;;;;;;;2.00;1.67;;;23.40;29.40;;;;;;4983377;28;20479;-87
2022/04/17 11:37:26;;;;;;;2.90;1.77;;;24.10;28.90;;;;;;4966702;28;21060;-87
2022/04/17 11:39:57;;;;;;;2.13;1.80;;;24.30;28.30;;;;;;4975023;28;20463;-87
2022/04/17 11:42:31;;;;;;;1.40;1.30;;;23.60;28.30;;;;;;4971620;28;20478;-86
2022/04/17 11:45:04;;;;;;;2.33;1.60;;;23.40;28.50;;;;;;4970145;28;20512;-86
2022/04/17 11:47:39;;;;;;;2.00;1.60;;;23.70;28.90;;;;;;4970533;28;20531;-87
2022/04/17 11:50:09;;;;;;;3.80;1.80;;;23.70;28.70;;;;;;4971881;28;20502;-86
2022/04/17 11:52:37;;;;;;;1.33;1.23;;;23.20;28.90;;;;;;4980768;28;20455;-85
2022/04/17 11:55:06;;;;;;;2.00;1.40;;;23.70;28.70;;;;;;4982054;28;20478;-86
2022/04/17 11:57:33;;;;;;;2.10;1.60;;;23.60;28.80;;;;;;4979820;28;20460;-85
2022/04/17 12:00:01;;;;;;;1.40;1.30;;;23.10;28.90;;;;;;4967130;28;20452;-86
2022/04/17 12:06:27;;;;;;;1.23;1.00;;;23.20;28.60;;;;;;4975445;28;20594;-84
2022/04/17 12:09:05;;;;;;;2.20;1.47;;;22.70;28.50;;;;;;4964990;28;20488;-87
2022/04/17 12:11:50;;;;;;;1.47;1.37;;;23.20;28.70;;;;;;4965986;28;20464;-86
2022/04/17 12:14:31;;;;;;;1.37;1.20;;;23.70;28.50;;;;;;4967710;28;20860;-84
2022/04/17 12:17:14;;;;;;;1.50;1.40;;;23.80;28.20;;;;;;4957561;28;20424;-84
2022/04/17 12:20:03;;;;;;;1.80;1.33;;;24.00;27.90;;;;;;4964526;28;20476;-85
2022/04/17 12:23:08;;;;;;;1.27;1.17;;;23.80;28.00;;;;;;4968053;28;20463;-87
2022/04/17 12:25:36;;;;;;;2.90;1.60;;;23.80;28.20;;;;;;4965610;28;20511;-86
2022/04/17 12:28:14;;;;;;;;;;;;;;;;;;;;;
2022/04/17 12:30:55;;;;;;;1.30;1.13;;;23.80;28.10;;;;;;4997478;28;20463;-87
2022/04/17 12:33:29;;;;;;;1.57;1.17;;;23.90;28.10;;;;;;4995174;28;20480;-85
2022/04/17 12:36:15;;;;;;;1.77;1.40;;;22.90;28.20;;;;;;4996123;28;20463;-86
2022/04/17 12:39:02;;;;;;;1.57;1.27;;;23.40;28.10;;;;;;4982615;28;20511;-86
2022/04/17 12:42:26;;;;;;;1.50;1.07;;;23.10;28.30;;;;;;4979170;28;21055;-85
2022/04/17 12:45:09;;;;;;;2.43;1.67;;;23.70;28.00;;;;;;4956015;28;20546;-85
2022/04/17 12:48:23;;;;;;;1.20;1.10;;;23.70;27.70;;;;;;4957255;28;20475;-89
2022/04/17 12:51:12;;;;;;;1.80;1.20;;;23.30;27.90;;;;;;4955113;28;20459;-86
2022/04/17 12:54:06;;;;;;;2.07;1.03;;;23.20;27.70;;;;;;4952944;28;20448;-87
2022/04/17 12:56:35;;;;;;;1.40;1.30;;;23.40;27.90;;;;;;4962739;28;21895;-84
2022/04/17 12:59:11;;;;;;;1.50;1.30;;;23.60;27.40;;;;;;4958378;28;20495;-84
2022/04/17 13:01:48;;;;;;;1.83;1.50;;;23.60;27.10;;;;;;4957720;28;20886;-85
2022/04/17 13:04:20;;;;;;;1.17;1.07;;;23.60;27.20;;;;;;4975123;28;20494;-85
2022/04/17 13:07:09;;;;;;;1.47;1.23;;;23.20;27.40;;;;;;4977065;28;20483;-88
2022/04/17 13:13:51;;;;;;;1.80;1.23;;;23.00;28.10;;;;;;4973333;28;20465;-86
2022/04/17 13:16:33;;;;;;;1.43;1.30;;;24.00;27.40;;;;;;4959492;28;20451;-86
2022/04/17 13:19:06;;;;;;;1.80;1.10;;;24.00;26.80;;;;;;4971673;28;20519;-85
2022/04/17 13:21:44;;;;;;;1.60;1.10;;;24.20;26.60;;;;;;4950381;28;20941;-86
2022/04/17 13:24:37;;;;;;;1.20;1.10;;;23.90;26.30;;;;;;4957926;28;20463;-82
2022/04/17 13:32:52;;;;;;;1.40;1.03;;;23.50;25.80;;;;;;4996311;28;20493;-86
2022/04/17 13:35:21;;;;;;;1.33;1.23;;;23.30;27.00;;;;;;5011479;28;20431;-86
2022/04/17 13:41:11;;;;;;;5.07;1.03;;;23.90;26.40;;;;;;5019737;28;21019;-85
2022/04/17 13:43:43;;;;;;;1.17;1.00;;;22.90;25.70;;;;;;5017703;28;20465;-86
2022/04/17 13:46:16;;;;;;;2.20;1.37;;;22.30;26.50;;;;;;5009838;28;20486;-86
2022/04/17 13:48:46;;;;;;;1.20;1.00;;;22.90;27.10;;;;;;5012444;28;20481;-85
2022/04/17 13:51:36;;;;;;;1.40;0.90;;;23.40;26.90;;;;;;5017255;28;20434;-83
2022/04/17 13:54:22;;;;;;;1.30;1.20;;;23.60;26.60;;;;;;5024935;28;20545;-82
2022/04/17 13:57:04;;;;;;;1.10;1.00;;;23.70;26.60;;;;;;5002561;28;20462;-84
2022/04/17 13:59:50;;;;;;;1.03;1.00;;;23.40;26.50;;;;;;5003446;28;20532;-87
2022/04/17 14:02:24;;;;;;;2.60;1.20;;;23.80;26.30;;;;;;5026744;28;20438;-86
2022/04/17 14:04:51;;;;;;;1.50;1.37;;;23.90;26.30;;;;;;5009283;28;20450;-87
2022/04/17 14:07:41;;;;;;;2.97;1.10;;;23.60;26.70;;;;;;5006238;28;20438;-85
2022/04/17 14:10:11;;;;;;;3.83;1.70;;;23.90;27.20;;;;;;5008001;28;20819;-86
2022/04/17 14:12:43;;;;;;;1.57;1.20;;;23.60;27.10;;;;;;5007802;28;20456;-85
2022/04/17 14:15:30;;;;;;;1.33;1.23;;;23.90;26.90;;;;;;5004978;28;21185;-85
2022/04/17 14:18:47;;;;;;;1.43;1.33;;;23.50;26.20;;;;;;5005674;28;20528;-86
2022/04/17 14:21:52;;;;;;;2.13;1.27;;;23.10;26.40;;;;;;5022238;28;20442;-86